RYR67UB EGSS-EDJA
Flight info
| Callsign | RYR67UB |
|---|---|
| Flight time | 1h 17m |
| Altitude | 37000 |
| Route | CLN M84 KONAN UL607 MATUG DCT AMASI DCT BOMBI T104 DKB Z818 ELVAG Z76 ABGAS Z79 LUPOL LUPOL1C |
| Aircraft | B738/M-SDE2E3FGHIRWXY/LB1 |
Departure
| Time | 2026-04-10 13:20 |
|---|---|
| Airport | London Stansted Airport (EGSS) |
Arrival
| Time | 2026-04-10 14:37 |
|---|---|
| Airport | Memmingen Allgau Airport (EDJA) |
| Time | Latitude | Longitude | Altitude | Speed | Heading |
|---|---|---|---|---|---|
| 2026-04-10 12:55 | 51.89164 | 0.25741 | 351 ft | 0 kts | 223° |
| 2026-04-10 13:12 | 51.89181 | 0.25766 | 361 ft | 4 kts | 223° |
| 2026-04-10 13:12 | 51.89198 | 0.25794 | 358 ft | 4 kts | 256° |
| 2026-04-10 13:12 | 51.89194 | 0.25823 | 361 ft | 1 kts | 313° |
| 2026-04-10 13:12 | 51.89181 | 0.25847 | 357 ft | 1 kts | 313° |
| 2026-04-10 13:16 | 51.89189 | 0.25832 | 355 ft | 4 kts | 313° |
| 2026-04-10 13:16 | 51.89219 | 0.25779 | 359 ft | 8 kts | 313° |
| 2026-04-10 13:16 | 51.89268 | 0.25695 | 351 ft | 12 kts | 313° |
| 2026-04-10 13:16 | 51.89332 | 0.25588 | 356 ft | 13 kts | 323° |
| 2026-04-10 13:17 | 51.89406 | 0.25504 | 355 ft | 13 kts | 314° |
| 2026-04-10 13:17 | 51.89417 | 0.25363 | 351 ft | 12 kts | 285° |
| 2026-04-10 13:17 | 51.89469 | 0.25255 | 354 ft | 11 kts | 313° |
| 2026-04-10 13:17 | 51.89493 | 0.25142 | 363 ft | 12 kts | 274° |
| 2026-04-10 13:18 | 51.89490 | 0.24991 | 357 ft | 13 kts | 259° |
| 2026-04-10 13:18 | 51.89470 | 0.24934 | 356 ft | 0 kts | 224° |
| 2026-04-10 13:19 | 51.89443 | 0.24892 | 354 ft | 15 kts | 224° |
| 2026-04-10 13:19 | 51.89203 | 0.24530 | 349 ft | 80 kts | 223° |
| 2026-04-10 13:19 | 51.88648 | 0.23694 | 336 ft | 136 kts | 223° |
| 2026-04-10 13:19 | 51.87890 | 0.22564 | 641 ft | 153 kts | 223° |
| 2026-04-10 13:20 | 51.87113 | 0.21404 | 1413 ft | 151 kts | 222° |
| 2026-04-10 13:20 | 51.86349 | 0.20243 | 2079 ft | 155 kts | 222° |
| 2026-04-10 13:20 | 51.85413 | 0.19131 | 2452 ft | 180 kts | 207° |
| 2026-04-10 13:20 | 51.84164 | 0.18637 | 2876 ft | 195 kts | 178° |
| 2026-04-10 13:21 | 51.82874 | 0.19346 | 3462 ft | 201 kts | 148° |
| 2026-04-10 13:21 | 51.81904 | 0.21075 | 3838 ft | 217 kts | 122° |
| 2026-04-10 13:21 | 51.81434 | 0.23392 | 3946 ft | 223 kts | 101° |
| 2026-04-10 13:21 | 51.81331 | 0.25948 | 3982 ft | 229 kts | 94° |
| 2026-04-10 13:22 | 51.81408 | 0.28586 | 4019 ft | 246 kts | 87° |
| 2026-04-10 13:22 | 51.81561 | 0.31469 | 4019 ft | 262 kts | 87° |
| 2026-04-10 13:22 | 51.81707 | 0.34403 | 4005 ft | 261 kts | 88° |
| 2026-04-10 13:22 | 51.81841 | 0.37327 | 4001 ft | 262 kts | 88° |
| 2026-04-10 13:23 | 51.81968 | 0.40247 | 3996 ft | 263 kts | 88° |
| 2026-04-10 13:23 | 51.82096 | 0.43225 | 4003 ft | 263 kts | 88° |
| 2026-04-10 13:23 | 51.82218 | 0.46149 | 4001 ft | 263 kts | 88° |
| 2026-04-10 13:23 | 51.82340 | 0.49105 | 3996 ft | 264 kts | 88° |
| 2026-04-10 13:24 | 51.82462 | 0.52072 | 3994 ft | 264 kts | 88° |
| 2026-04-10 13:24 | 51.82583 | 0.55039 | 3991 ft | 264 kts | 88° |
| 2026-04-10 13:24 | 51.82702 | 0.58002 | 3996 ft | 264 kts | 88° |
| 2026-04-10 13:24 | 51.82822 | 0.60986 | 4136 ft | 268 kts | 88° |
| 2026-04-10 13:25 | 51.82942 | 0.64003 | 4658 ft | 271 kts | 88° |
| 2026-04-10 13:25 | 51.83062 | 0.67036 | 4944 ft | 269 kts | 88° |
| 2026-04-10 13:25 | 51.83180 | 0.70061 | 5247 ft | 270 kts | 89° |
| 2026-04-10 13:25 | 51.82930 | 0.73045 | 5534 ft | 270 kts | 115° |
| 2026-04-10 13:26 | 51.81877 | 0.75507 | 5921 ft | 267 kts | 137° |
| 2026-04-10 13:26 | 51.80535 | 0.77573 | 6296 ft | 272 kts | 140° |
| 2026-04-10 13:26 | 51.79118 | 0.79634 | 6666 ft | 275 kts | 141° |
| 2026-04-10 13:26 | 51.77681 | 0.81697 | 7015 ft | 278 kts | 141° |
| 2026-04-10 13:27 | 51.76232 | 0.83779 | 7367 ft | 279 kts | 141° |
| 2026-04-10 13:27 | 51.74782 | 0.85868 | 7710 ft | 280 kts | 141° |
| 2026-04-10 13:27 | 51.73330 | 0.87969 | 8057 ft | 281 kts | 141° |
| 2026-04-10 13:27 | 51.71874 | 0.90087 | 8426 ft | 282 kts | 141° |
| 2026-04-10 13:28 | 51.70415 | 0.92223 | 8786 ft | 283 kts | 141° |
| 2026-04-10 13:28 | 51.68957 | 0.94376 | 9178 ft | 285 kts | 141° |
| 2026-04-10 13:28 | 51.67495 | 0.96550 | 9553 ft | 287 kts | 141° |
| 2026-04-10 13:28 | 51.66021 | 0.98746 | 9938 ft | 290 kts | 141° |
| 2026-04-10 13:29 | 51.64537 | 1.00958 | 10291 ft | 293 kts | 141° |
| 2026-04-10 13:29 | 51.63033 | 1.03206 | 10635 ft | 297 kts | 141° |
| 2026-04-10 13:29 | 51.61535 | 1.05455 | 10998 ft | 299 kts | 141° |
| 2026-04-10 13:29 | 51.59991 | 1.07784 | 11402 ft | 302 kts | 141° |
| 2026-04-10 13:30 | 51.59492 | 1.08537 | 11532 ft | 303 kts | 141° |
| 2026-04-10 13:30 | 51.56903 | 1.12474 | 12216 ft | 309 kts | 141° |
| 2026-04-10 13:30 | 51.55350 | 1.14871 | 12613 ft | 319 kts | 138° |
| 2026-04-10 13:30 | 51.54033 | 1.17827 | 13041 ft | 330 kts | 123° |
| 2026-04-10 13:31 | 51.52904 | 1.21059 | 13466 ft | 334 kts | 122° |
| 2026-04-10 13:31 | 51.51795 | 1.24348 | 13894 ft | 337 kts | 121° |
| 2026-04-10 13:31 | 51.50680 | 1.27675 | 14273 ft | 339 kts | 121° |
| 2026-04-10 13:31 | 51.49562 | 1.31024 | 14665 ft | 341 kts | 121° |
| 2026-04-10 13:32 | 51.48438 | 1.34404 | 15063 ft | 343 kts | 121° |
| 2026-04-10 13:32 | 51.47314 | 1.37790 | 15448 ft | 345 kts | 121° |
| 2026-04-10 13:32 | 51.46183 | 1.41203 | 15851 ft | 347 kts | 121° |
| 2026-04-10 13:32 | 51.45050 | 1.44628 | 16241 ft | 349 kts | 121° |
| 2026-04-10 13:33 | 51.43907 | 1.48081 | 16653 ft | 351 kts | 121° |
| 2026-04-10 13:33 | 51.42757 | 1.51548 | 17069 ft | 354 kts | 121° |
| 2026-04-10 13:33 | 51.41596 | 1.55044 | 17490 ft | 357 kts | 121° |
| 2026-04-10 13:33 | 51.40428 | 1.58564 | 17928 ft | 359 kts | 121° |
| 2026-04-10 13:34 | 51.39337 | 1.62189 | 18479 ft | 365 kts | 117° |
| 2026-04-10 13:34 | 51.38291 | 1.65944 | 18947 ft | 372 kts | 116° |
| 2026-04-10 13:34 | 51.37245 | 1.69755 | 19491 ft | 376 kts | 117° |
| 2026-04-10 13:34 | 51.36184 | 1.73596 | 20051 ft | 379 kts | 117° |
| 2026-04-10 13:35 | 51.35102 | 1.77463 | 20587 ft | 383 kts | 118° |
| 2026-04-10 13:35 | 51.33999 | 1.81360 | 21113 ft | 387 kts | 118° |
| 2026-04-10 13:35 | 51.32871 | 1.85309 | 21623 ft | 391 kts | 118° |
| 2026-04-10 13:35 | 51.31732 | 1.89276 | 22147 ft | 395 kts | 118° |
| 2026-04-10 13:36 | 51.30592 | 1.93231 | 22643 ft | 399 kts | 118° |
| 2026-04-10 13:36 | 51.29415 | 1.97301 | 23082 ft | 405 kts | 118° |
| 2026-04-10 13:36 | 51.28229 | 2.01395 | 23592 ft | 409 kts | 118° |
| 2026-04-10 13:36 | 51.27028 | 2.05539 | 24049 ft | 412 kts | 118° |
| 2026-04-10 13:37 | 51.25817 | 2.09708 | 24509 ft | 415 kts | 118° |
| 2026-04-10 13:37 | 51.24598 | 2.13900 | 24954 ft | 417 kts | 119° |
| 2026-04-10 13:37 | 51.23373 | 2.18102 | 25392 ft | 419 kts | 119° |
| 2026-04-10 13:37 | 51.22135 | 2.22340 | 25818 ft | 422 kts | 119° |
| 2026-04-10 13:38 | 51.20889 | 2.26599 | 26252 ft | 425 kts | 119° |
| 2026-04-10 13:38 | 51.19633 | 2.30886 | 26676 ft | 427 kts | 119° |
| 2026-04-10 13:38 | 51.18384 | 2.35139 | 27085 ft | 430 kts | 119° |
| 2026-04-10 13:38 | 51.17112 | 2.39466 | 27486 ft | 433 kts | 119° |
| 2026-04-10 13:39 | 51.15824 | 2.43837 | 27823 ft | 437 kts | 119° |
| 2026-04-10 13:39 | 51.14529 | 2.48223 | 28229 ft | 440 kts | 119° |
| 2026-04-10 13:39 | 51.13226 | 2.52635 | 28648 ft | 441 kts | 119° |
| 2026-04-10 13:39 | 51.11911 | 2.57079 | 29041 ft | 444 kts | 119° |
| 2026-04-10 13:40 | 51.10592 | 2.61521 | 29403 ft | 447 kts | 119° |
| 2026-04-10 13:40 | 51.09307 | 2.66042 | 29775 ft | 451 kts | 114° |
| 2026-04-10 13:40 | 51.08330 | 2.70811 | 30134 ft | 455 kts | 108° |
| 2026-04-10 13:40 | 51.07466 | 2.75670 | 30456 ft | 458 kts | 107° |
| 2026-04-10 13:41 | 51.06626 | 2.80560 | 30742 ft | 460 kts | 107° |
| 2026-04-10 13:41 | 51.05773 | 2.85500 | 30969 ft | 465 kts | 106° |
| 2026-04-10 13:41 | 51.04897 | 2.90484 | 31165 ft | 470 kts | 107° |
| 2026-04-10 13:41 | 51.04000 | 2.95490 | 31485 ft | 471 kts | 107° |
| 2026-04-10 13:42 | 51.03091 | 3.00489 | 31776 ft | 473 kts | 107° |
| 2026-04-10 13:42 | 51.02164 | 3.05540 | 32106 ft | 474 kts | 107° |
| 2026-04-10 13:42 | 51.01237 | 3.10568 | 32418 ft | 475 kts | 106° |
| 2026-04-10 13:42 | 51.00318 | 3.15540 | 32668 ft | 477 kts | 106° |
| 2026-04-10 13:43 | 50.99378 | 3.20609 | 32891 ft | 480 kts | 106° |
| 2026-04-10 13:43 | 50.98432 | 3.25700 | 33132 ft | 483 kts | 106° |
| 2026-04-10 13:43 | 50.97477 | 3.30831 | 33410 ft | 484 kts | 105° |
| 2026-04-10 13:43 | 50.96521 | 3.35960 | 33675 ft | 485 kts | 105° |
| 2026-04-10 13:44 | 50.95558 | 3.41103 | 33911 ft | 488 kts | 105° |
| 2026-04-10 13:44 | 50.94590 | 3.46267 | 34147 ft | 490 kts | 105° |
| 2026-04-10 13:44 | 50.93928 | 3.49782 | 34290 ft | 491 kts | 105° |
| 2026-04-10 13:44 | 50.92633 | 3.56657 | 34587 ft | 492 kts | 105° |
| 2026-04-10 13:45 | 50.91649 | 3.61860 | 34814 ft | 493 kts | 105° |
| 2026-04-10 13:45 | 50.90661 | 3.67053 | 35034 ft | 493 kts | 105° |
| 2026-04-10 13:45 | 50.89997 | 3.70505 | 35174 ft | 494 kts | 105° |
| 2026-04-10 13:45 | 50.88986 | 3.75728 | 35375 ft | 495 kts | 105° |
| 2026-04-10 13:46 | 50.87971 | 3.80952 | 35614 ft | 496 kts | 105° |
| 2026-04-10 13:46 | 50.86955 | 3.86165 | 35838 ft | 496 kts | 105° |
| 2026-04-10 13:46 | 50.85934 | 3.91396 | 36048 ft | 497 kts | 105° |
| 2026-04-10 13:46 | 50.84912 | 3.96626 | 36211 ft | 499 kts | 105° |
| 2026-04-10 13:47 | 50.82845 | 4.07174 | 36427 ft | 505 kts | 105° |
| 2026-04-10 13:47 | 50.81802 | 4.12473 | 36607 ft | 505 kts | 105° |
| 2026-04-10 13:47 | 50.80754 | 4.17780 | 36878 ft | 504 kts | 105° |
| 2026-04-10 13:48 | 50.79712 | 4.23044 | 37128 ft | 501 kts | 105° |
| 2026-04-10 13:48 | 50.78668 | 4.28306 | 37187 ft | 504 kts | 105° |
| 2026-04-10 13:48 | 50.76559 | 4.38891 | 37179 ft | 504 kts | 105° |
| 2026-04-10 13:49 | 50.74454 | 4.49397 | 37184 ft | 500 kts | 105° |
| 2026-04-10 13:49 | 50.72354 | 4.59832 | 37177 ft | 497 kts | 105° |
| 2026-04-10 13:50 | 50.70315 | 4.70225 | 37186 ft | 495 kts | 105° |
| 2026-04-10 13:50 | 50.68312 | 4.80602 | 37162 ft | 494 kts | 105° |
| 2026-04-10 13:51 | 50.66292 | 4.90938 | 37182 ft | 493 kts | 105° |
| 2026-04-10 13:51 | 50.64212 | 5.01246 | 37183 ft | 494 kts | 106° |
| 2026-04-10 13:52 | 50.62094 | 5.11504 | 37181 ft | 496 kts | 106° |
| 2026-04-10 13:52 | 50.59954 | 5.21857 | 37172 ft | 498 kts | 106° |
| 2026-04-10 13:53 | 50.57807 | 5.32225 | 37173 ft | 499 kts | 106° |
| 2026-04-10 13:53 | 50.55646 | 5.42613 | 37180 ft | 500 kts | 106° |
| 2026-04-10 13:54 | 50.53470 | 5.53026 | 37171 ft | 501 kts | 106° |
| 2026-04-10 13:54 | 50.51311 | 5.63462 | 37180 ft | 501 kts | 103° |
| 2026-04-10 13:55 | 50.49915 | 5.74125 | 37170 ft | 498 kts | 97° |
| 2026-04-10 13:55 | 50.48634 | 5.84735 | 37170 ft | 497 kts | 98° |
| 2026-04-10 13:56 | 50.47240 | 5.95355 | 37153 ft | 497 kts | 99° |
| 2026-04-10 13:56 | 50.45830 | 6.05975 | 37165 ft | 496 kts | 98° |
| 2026-04-10 13:57 | 50.44427 | 6.16563 | 37138 ft | 495 kts | 99° |
| 2026-04-10 13:57 | 50.43025 | 6.27113 | 37137 ft | 493 kts | 99° |
| 2026-04-10 13:58 | 50.41616 | 6.37628 | 37129 ft | 492 kts | 99° |
| 2026-04-10 13:58 | 50.40183 | 6.48052 | 37145 ft | 491 kts | 99° |
| 2026-04-10 13:59 | 50.38723 | 6.58504 | 37137 ft | 491 kts | 99° |
| 2026-04-10 13:59 | 50.37257 | 6.68959 | 37133 ft | 491 kts | 99° |
| 2026-04-10 14:00 | 50.35785 | 6.79404 | 37133 ft | 491 kts | 99° |
| 2026-04-10 14:00 | 50.34300 | 6.89876 | 37137 ft | 492 kts | 100° |
| 2026-04-10 14:01 | 50.32803 | 7.00361 | 37128 ft | 496 kts | 100° |
| 2026-04-10 14:01 | 50.31286 | 7.10909 | 37127 ft | 496 kts | 100° |
| 2026-04-10 14:02 | 50.29763 | 7.21424 | 37136 ft | 496 kts | 100° |
| 2026-04-10 14:02 | 50.28225 | 7.31969 | 37121 ft | 497 kts | 100° |
| 2026-04-10 14:03 | 50.26688 | 7.42440 | 37140 ft | 497 kts | 100° |
| 2026-04-10 14:03 | 50.25130 | 7.52997 | 37139 ft | 498 kts | 100° |
| 2026-04-10 14:04 | 50.23567 | 7.63514 | 37139 ft | 497 kts | 100° |
| 2026-04-10 14:05 | 50.21218 | 7.79293 | 37127 ft | 497 kts | 100° |
| 2026-04-10 14:05 | 50.19646 | 7.89794 | 37140 ft | 497 kts | 100° |
| 2026-04-10 14:06 | 50.18072 | 8.00235 | 37147 ft | 497 kts | 100° |
| 2026-04-10 14:06 | 50.16479 | 8.10725 | 37131 ft | 496 kts | 100° |
| 2026-04-10 14:07 | 50.14879 | 8.21194 | 37144 ft | 495 kts | 100° |
| 2026-04-10 14:07 | 50.13275 | 8.31623 | 37147 ft | 495 kts | 100° |
| 2026-04-10 14:08 | 50.11660 | 8.42055 | 37138 ft | 495 kts | 100° |
| 2026-04-10 14:08 | 50.10048 | 8.52402 | 37125 ft | 493 kts | 100° |
| 2026-04-10 14:09 | 50.08420 | 8.62795 | 37126 ft | 493 kts | 100° |
| 2026-04-10 14:09 | 50.06748 | 8.73152 | 37124 ft | 495 kts | 105° |
| 2026-04-10 14:10 | 50.03558 | 8.82642 | 37125 ft | 498 kts | 128° |
| 2026-04-10 14:10 | 50.01243 | 8.86633 | 37120 ft | 496 kts | 139° |
| 2026-04-10 14:10 | 49.98679 | 8.90224 | 37119 ft | 496 kts | 141° |
| 2026-04-10 14:10 | 49.96057 | 8.93805 | 36608 ft | 503 kts | 141° |
| 2026-04-10 14:11 | 49.95208 | 8.94962 | 36502 ft | 501 kts | 141° |
| 2026-04-10 14:11 | 49.90897 | 9.00880 | 35862 ft | 495 kts | 140° |
| 2026-04-10 14:11 | 49.88349 | 9.04420 | 35456 ft | 492 kts | 140° |
| 2026-04-10 14:11 | 49.85805 | 9.07975 | 35060 ft | 489 kts | 139° |
| 2026-04-10 14:12 | 49.83287 | 9.11502 | 34574 ft | 489 kts | 139° |
| 2026-04-10 14:12 | 49.80769 | 9.15030 | 34201 ft | 486 kts | 139° |
| 2026-04-10 14:12 | 49.78263 | 9.18533 | 33777 ft | 484 kts | 139° |
| 2026-04-10 14:12 | 49.75766 | 9.22019 | 33353 ft | 482 kts | 140° |
| 2026-04-10 14:13 | 49.73289 | 9.25469 | 32958 ft | 479 kts | 140° |
| 2026-04-10 14:13 | 49.70808 | 9.28917 | 32564 ft | 477 kts | 140° |
| 2026-04-10 14:13 | 49.68346 | 9.32335 | 32201 ft | 475 kts | 141° |
| 2026-04-10 14:13 | 49.65890 | 9.35742 | 31790 ft | 474 kts | 141° |
| 2026-04-10 14:14 | 49.63476 | 9.39083 | 31419 ft | 471 kts | 141° |
| 2026-04-10 14:14 | 49.61073 | 9.42515 | 31046 ft | 471 kts | 137° |
| 2026-04-10 14:14 | 49.58858 | 9.46246 | 30664 ft | 470 kts | 133° |
| 2026-04-10 14:14 | 49.56734 | 9.50065 | 30268 ft | 469 kts | 132° |
| 2026-04-10 14:15 | 49.54632 | 9.53898 | 29861 ft | 466 kts | 132° |
| 2026-04-10 14:15 | 49.52530 | 9.57699 | 29442 ft | 463 kts | 133° |
| 2026-04-10 14:15 | 49.50432 | 9.61438 | 29049 ft | 460 kts | 133° |
| 2026-04-10 14:15 | 49.48335 | 9.65134 | 28669 ft | 457 kts | 133° |
| 2026-04-10 14:16 | 49.46226 | 9.68757 | 28369 ft | 450 kts | 139° |
| 2026-04-10 14:16 | 49.43883 | 9.71805 | 28275 ft | 434 kts | 150° |
| 2026-04-10 14:16 | 49.41320 | 9.74164 | 27574 ft | 428 kts | 158° |
| 2026-04-10 14:16 | 49.38668 | 9.76275 | 26772 ft | 431 kts | 159° |
| 2026-04-10 14:17 | 49.36005 | 9.78359 | 26186 ft | 430 kts | 159° |
| 2026-04-10 14:17 | 49.33349 | 9.80444 | 25677 ft | 425 kts | 158° |
| 2026-04-10 14:17 | 49.30738 | 9.82512 | 25244 ft | 419 kts | 158° |
| 2026-04-10 14:17 | 49.28153 | 9.84574 | 24648 ft | 419 kts | 157° |
| 2026-04-10 14:18 | 49.25573 | 9.86639 | 24077 ft | 418 kts | 157° |
| 2026-04-10 14:18 | 49.23003 | 9.88701 | 23570 ft | 415 kts | 157° |
| 2026-04-10 14:18 | 49.20461 | 9.90746 | 23056 ft | 410 kts | 157° |
| 2026-04-10 14:18 | 49.17960 | 9.92757 | 22571 ft | 404 kts | 157° |
| 2026-04-10 14:19 | 49.15486 | 9.94744 | 22091 ft | 399 kts | 157° |
| 2026-04-10 14:19 | 49.13044 | 9.96703 | 21602 ft | 394 kts | 157° |
| 2026-04-10 14:19 | 49.10626 | 9.98638 | 21116 ft | 389 kts | 157° |
| 2026-04-10 14:19 | 49.08244 | 10.00544 | 20644 ft | 384 kts | 158° |
| 2026-04-10 14:20 | 49.05895 | 10.02420 | 20269 ft | 377 kts | 158° |
| 2026-04-10 14:20 | 49.03581 | 10.04257 | 19780 ft | 374 kts | 158° |
| 2026-04-10 14:20 | 49.01278 | 10.06085 | 19298 ft | 371 kts | 158° |
| 2026-04-10 14:20 | 48.99027 | 10.07873 | 18858 ft | 367 kts | 158° |
| 2026-04-10 14:21 | 48.96775 | 10.09663 | 18421 ft | 363 kts | 158° |
| 2026-04-10 14:21 | 48.94546 | 10.11433 | 17919 ft | 359 kts | 158° |
| 2026-04-10 14:21 | 48.92333 | 10.13190 | 17408 ft | 356 kts | 158° |
| 2026-04-10 14:21 | 48.90140 | 10.14929 | 16864 ft | 354 kts | 158° |
| 2026-04-10 14:22 | 48.87962 | 10.16654 | 16397 ft | 350 kts | 158° |
| 2026-04-10 14:22 | 48.85820 | 10.18351 | 16014 ft | 344 kts | 159° |
| 2026-04-10 14:22 | 48.83744 | 10.19994 | 15695 ft | 337 kts | 159° |
| 2026-04-10 14:22 | 48.81687 | 10.21621 | 15369 ft | 330 kts | 159° |
| 2026-04-10 14:23 | 48.79649 | 10.23231 | 15055 ft | 323 kts | 159° |
| 2026-04-10 14:23 | 48.77688 | 10.24777 | 14765 ft | 320 kts | 159° |
| 2026-04-10 14:23 | 48.75706 | 10.26333 | 14484 ft | 323 kts | 159° |
| 2026-04-10 14:23 | 48.73683 | 10.27919 | 14171 ft | 332 kts | 159° |
| 2026-04-10 14:24 | 48.71609 | 10.29545 | 13816 ft | 338 kts | 159° |
| 2026-04-10 14:24 | 48.69526 | 10.31184 | 13460 ft | 337 kts | 158° |
| 2026-04-10 14:24 | 48.67452 | 10.32818 | 13124 ft | 335 kts | 158° |
| 2026-04-10 14:24 | 48.65384 | 10.34444 | 12790 ft | 333 kts | 158° |
| 2026-04-10 14:25 | 48.63336 | 10.36049 | 12476 ft | 331 kts | 158° |
| 2026-04-10 14:25 | 48.61297 | 10.37644 | 12141 ft | 330 kts | 158° |
| 2026-04-10 14:25 | 48.59213 | 10.39011 | 11787 ft | 321 kts | 173° |
| 2026-04-10 14:25 | 48.57025 | 10.39310 | 11319 ft | 313 kts | 187° |
| 2026-04-10 14:26 | 48.54875 | 10.39279 | 10961 ft | 305 kts | 187° |
| 2026-04-10 14:26 | 48.52773 | 10.39236 | 10646 ft | 298 kts | 187° |
| 2026-04-10 14:26 | 48.50725 | 10.39201 | 10338 ft | 291 kts | 187° |
| 2026-04-10 14:26 | 48.48739 | 10.39176 | 10176 ft | 279 kts | 187° |
| 2026-04-10 14:27 | 48.46834 | 10.39161 | 9943 ft | 270 kts | 187° |
| 2026-04-10 14:27 | 48.44992 | 10.39146 | 9694 ft | 266 kts | 187° |
| 2026-04-10 14:27 | 48.43147 | 10.39133 | 9423 ft | 265 kts | 186° |
| 2026-04-10 14:27 | 48.41309 | 10.39122 | 9160 ft | 264 kts | 186° |
| 2026-04-10 14:28 | 48.39455 | 10.39111 | 8903 ft | 269 kts | 186° |
| 2026-04-10 14:28 | 48.37563 | 10.39101 | 8644 ft | 274 kts | 186° |
| 2026-04-10 14:28 | 48.35636 | 10.39094 | 8370 ft | 278 kts | 185° |
| 2026-04-10 14:28 | 48.33704 | 10.39090 | 8088 ft | 277 kts | 185° |
| 2026-04-10 14:29 | 48.31783 | 10.39087 | 7818 ft | 275 kts | 185° |
| 2026-04-10 14:29 | 48.29880 | 10.39085 | 7614 ft | 271 kts | 185° |
| 2026-04-10 14:29 | 48.28001 | 10.39082 | 7361 ft | 269 kts | 185° |
| 2026-04-10 14:29 | 48.26138 | 10.39078 | 7105 ft | 267 kts | 185° |
| 2026-04-10 14:30 | 48.24280 | 10.39075 | 6847 ft | 266 kts | 185° |
| 2026-04-10 14:30 | 48.22436 | 10.39070 | 6587 ft | 265 kts | 185° |
| 2026-04-10 14:30 | 48.20593 | 10.39065 | 6340 ft | 263 kts | 185° |
| 2026-04-10 14:30 | 48.18786 | 10.39062 | 6216 ft | 256 kts | 185° |
| 2026-04-10 14:31 | 48.17039 | 10.39079 | 6124 ft | 247 kts | 180° |
| 2026-04-10 14:31 | 48.15444 | 10.39885 | 6003 ft | 237 kts | 153° |
| 2026-04-10 14:31 | 48.14070 | 10.41129 | 5897 ft | 229 kts | 153° |
| 2026-04-10 14:31 | 48.12716 | 10.42325 | 5712 ft | 226 kts | 153° |
| 2026-04-10 14:32 | 48.11362 | 10.43514 | 5511 ft | 226 kts | 153° |
| 2026-04-10 14:32 | 48.10015 | 10.44695 | 5310 ft | 222 kts | 153° |
| 2026-04-10 14:32 | 48.08626 | 10.45575 | 5047 ft | 212 kts | 180° |
| 2026-04-10 14:32 | 48.07693 | 10.45363 | 4915 ft | 201 kts | 211° |
| 2026-04-10 14:33 | 48.06785 | 10.43950 | 4728 ft | 188 kts | 249° |
| 2026-04-10 14:33 | 48.06174 | 10.42189 | 4541 ft | 191 kts | 238° |
| 2026-04-10 14:33 | 48.05450 | 10.40605 | 4409 ft | 181 kts | 243° |
| 2026-04-10 14:33 | 48.04842 | 10.39007 | 4198 ft | 172 kts | 243° |
| 2026-04-10 14:34 | 48.04260 | 10.37512 | 3968 ft | 164 kts | 243° |
| 2026-04-10 14:34 | 48.03688 | 10.36065 | 3789 ft | 157 kts | 242° |
| 2026-04-10 14:34 | 48.03668 | 10.36015 | 3786 ft | 157 kts | 242° |
| 2026-04-10 14:35 | 48.03467 | 10.35508 | 3692 ft | 155 kts | 242° |
| 2026-04-10 14:35 | 48.02924 | 10.34139 | 3475 ft | 151 kts | 242° |
| 2026-04-10 14:35 | 48.02389 | 10.32791 | 3262 ft | 152 kts | 242° |
| 2026-04-10 14:36 | 48.01853 | 10.31442 | 3075 ft | 150 kts | 243° |
| 2026-04-10 14:36 | 48.01319 | 10.30095 | 2863 ft | 151 kts | 241° |
| 2026-04-10 14:36 | 48.00778 | 10.28729 | 2638 ft | 153 kts | 241° |
| 2026-04-10 14:36 | 48.00232 | 10.27366 | 2425 ft | 152 kts | 237° |
| 2026-04-10 14:37 | 47.99696 | 10.26013 | 2222 ft | 152 kts | 238° |
| 2026-04-10 14:37 | 47.99164 | 10.24659 | 2074 ft | 146 kts | 239° |
| 2026-04-10 14:37 | 47.98711 | 10.23518 | 2079 ft | 100 kts | 239° |
| 2026-04-10 14:37 | 47.98474 | 10.22919 | 2082 ft | 27 kts | 240° |
| 2026-04-10 14:38 | 47.98446 | 10.22833 | 2083 ft | 5 kts | 191° |
| 2026-04-10 14:38 | 47.98443 | 10.22846 | 2083 ft | 2 kts | 87° |
| 2026-04-10 14:38 | 47.98458 | 10.22888 | 2083 ft | 8 kts | 59° |
| 2026-04-10 14:38 | 47.98495 | 10.22982 | 2081 ft | 13 kts | 59° |
| 2026-04-10 14:39 | 47.98553 | 10.23129 | 2079 ft | 19 kts | 59° |
| 2026-04-10 14:39 | 47.98627 | 10.23316 | 2079 ft | 22 kts | 59° |
| 2026-04-10 14:39 | 47.98708 | 10.23520 | 2079 ft | 24 kts | 59° |
| 2026-04-10 14:39 | 47.98789 | 10.23726 | 2074 ft | 19 kts | 59° |
| 2026-04-10 14:40 | 47.98880 | 10.23732 | 2076 ft | 13 kts | 329° |
| 2026-04-10 14:40 | 47.98903 | 10.23594 | 2072 ft | 17 kts | 251° |
| 2026-04-10 14:40 | 47.98864 | 10.23430 | 2080 ft | 15 kts | 250° |
| 2026-04-10 14:40 | 47.98828 | 10.23283 | 2079 ft | 12 kts | 250° |
| 2026-04-10 14:41 | 47.98848 | 10.23218 | 2079 ft | 1 kts | 348° |
| 2026-04-10 14:41 | 47.98862 | 10.23227 | 2077 ft | 0 kts | 45° |
| 2026-04-10 14:41 | 47.98869 | 10.23239 | 2077 ft | 0 kts | 50° |